Time;durP1;ratioP1;P1;durP2;ratioP2;P2;SDS_P1;SDS_P2;PMS_P1;PMS_P2;Temp;Humidity;BMP_temperature;BMP_pressure;BME280_temperature;BME280_humidity;BME280_pressure;Samples;Min_cycle;Max_cycle;Signal;HPM_P1;HPM_P2
2023/03/10 00:01:14;;;;;;;;;;;;;;;;;;4974395;28;20387;-76
2023/03/10 00:03:40;;;;;;;;;;;;;;;;;;4973012;28;19918;-76
2023/03/10 00:06:05;;;;;;;;;;;;;;;;;;4974666;28;19968;-78
2023/03/10 00:08:30;;;;;;;;;;;;;;;;;;4968597;28;20274;-77
2023/03/10 00:10:56;;;;;;;;;;;;;;;;;;4973261;28;19925;-77
2023/03/10 00:13:21;;;;;;;;;;;;;;;;;;4973812;28;20001;-79
2023/03/10 00:15:46;;;;;;;;;;;;;;;;;;4972539;28;19945;-76
2023/03/10 00:18:12;;;;;;;;;;;;;;;;;;4973840;28;19921;-76
2023/03/10 00:20:37;;;;;;;;;;;;;;;;;;4974265;28;20005;-76
2023/03/10 00:23:03;;;;;;;;;;;;;;;;;;4974024;28;20258;-75
2023/03/10 00:25:28;;;;;;;;;;;;;;;;;;4957075;28;19918;-76
2023/03/10 00:27:53;;;;;;;;;;;;;;;;;;4972470;28;20361;-76
2023/03/10 00:30:21;;;;;;;;;;;;;;;;;;4973839;28;19914;-75
2023/03/10 00:32:46;;;;;;;;;;;;;;;;;;4972533;28;20012;-76
2023/03/10 00:35:11;;;;;;;;;;;;;;;;;;4988523;28;20293;-76
2023/03/10 00:37:37;;;;;;;;;;;;;;;;;;4972248;28;20385;-76
2023/03/10 00:40:03;;;;;;;;;;;;;;;;;;4972304;28;19922;-76
2023/03/10 00:42:29;;;;;;;;;;;;;;;;;;4988431;28;19937;-76
2023/03/10 00:44:54;;;;;;;;;;;;;;;;;;4977128;28;20405;-76
2023/03/10 00:47:21;;;;;;;;;;;;;;;;;;4976686;28;19914;-76
2023/03/10 00:49:46;;;;;;;;;;;;;;;;;;4980845;28;19921;-76
2023/03/10 00:52:12;;;;;;;;;;;;;;;;;;4999863;28;19914;-82
2023/03/10 00:54:37;;;;;;;;;;;;;;;;;;4999491;28;19921;-81
2023/03/10 00:57:02;;;;;;;;;;;;;;;;;;5005388;28;19917;-77
2023/03/10 00:59:28;;;;;;;;;;;;;;;;;;4997914;28;19952;-76
2023/03/10 01:01:53;;;;;;;;;;;;;;;;;;4995033;28;20308;-77
2023/03/10 01:04:18;;;;;;;;;;;;;;;;;;4980090;28;19921;-77
2023/03/10 01:06:46;;;;;;;;;;;;;;;;;;4977647;28;20287;-77
2023/03/10 01:09:13;;;;;;;;;;;;;;;;;;4969824;28;20442;-77
2023/03/10 01:11:38;;;;;;;;;;;;;;;;;;4977192;28;20028;-77
2023/03/10 01:14:04;;;;;;;;;;;;;;;;;;4977912;28;19965;-77
2023/03/10 01:16:29;;;;;;;;;;;;;;;;;;4944928;28;19961;-77
2023/03/10 01:18:54;;;;;;;;;;;;;;;;;;4976445;28;20318;-76
2023/03/10 01:21:20;;;;;;;;;;;;;;;;;;4969092;28;19925;-76
2023/03/10 01:23:45;;;;;;;;;;;;;;;;;;4980007;28;19919;-74
2023/03/10 01:26:11;;;;;;;;;;;;;;;;;;4980723;28;19925;-77
2023/03/10 01:28:36;;;;;;;;;;;;;;;;;;4978557;28;19924;-76
2023/03/10 01:31:04;;;;;;;;;;;;;;;;;;4979793;28;19925;-76
2023/03/10 01:33:29;;;;;;;;;;;;;;;;;;4962421;28;19915;-77
2023/03/10 01:35:54;;;;;;;;;;;;;;;;;;4961765;28;19945;-77
2023/03/10 01:38:20;;;;;;;;;;;;;;;;;;4979253;28;19914;-76
2023/03/10 01:40:45;;;;;;;;;;;;;;;;;;4978287;28;19925;-77
2023/03/10 01:43:11;;;;;;;;;;;;;;;;;;4976532;28;20382;-76
2023/03/10 01:45:36;;;;;;;;;;;;;;;;;;4976986;28;19925;-76
2023/03/10 01:48:01;;;;;;;;;;;;;;;;;;4976959;28;19915;-77
2023/03/10 01:50:27;;;;;;;;;;;;;;;;;;4959577;28;19921;-77
2023/03/10 01:52:57;;;;;;;;;;;;;;;;;;4977546;28;19921;-77
2023/03/10 01:55:22;;;;;;;;;;;;;;;;;;4976266;28;19914;-77
2023/03/10 01:57:48;;;;;;;;;;;;;;;;;;4976623;28;20400;-77
2023/03/10 02:00:13;;;;;;;;;;;;;;;;;;4977251;28;19914;-77
2023/03/10 02:02:44;;;;;;;;;;;;;;;;;;4975201;28;19926;-77
2023/03/10 02:05:09;;;;;;;;;;;;;;;;;;4975981;28;19918;-76
2023/03/10 02:07:34;;;;;;;;;;;;;;;;;;4975072;28;19914;-77
2023/03/10 02:10:00;;;;;;;;;;;;;;;;;;4996915;28;19914;-77
2023/03/10 02:12:25;;;;;;;;;;;;;;;;;;5027401;28;19913;-75
2023/03/10 02:14:51;;;;;;;;;;;;;;;;;;5038625;28;19901;-75
2023/03/10 02:17:16;;;;;;;;;;;;;;;;;;5019655;28;19917;-75
2023/03/10 02:19:42;;;;;;;;;;;;;;;;;;5037283;28;19925;-76
2023/03/10 02:22:08;;;;;;;;;;;;;;;;;;5036078;28;19922;-75
2023/03/10 02:24:33;;;;;;;;;;;;;;;;;;5009142;28;19929;-76
2023/03/10 02:26:58;;;;;;;;;;;;;;;;;;5024457;28;19918;-76
2023/03/10 02:29:24;;;;;;;;;;;;;;;;;;5014718;28;19902;-76
2023/03/10 02:31:49;;;;;;;;;;;;;;;;;;5003204;28;20564;-76
2023/03/10 02:34:15;;;;;;;;;;;;;;;;;;5001044;28;19910;-76
2023/03/10 02:36:40;;;;;;;;;;;;;;;;;;4997866;28;19940;-76
2023/03/10 02:39:05;;;;;;;;;;;;;;;;;;4979983;28;19924;-76
2023/03/10 02:41:31;;;;;;;;;;;;;;;;;;4996255;28;20399;-76
2023/03/10 02:43:56;;;;;;;;;;;;;;;;;;4983282;28;19922;-76
2023/03/10 02:46:25;;;;;;;;;;;;;;;;;;4959344;28;19945;-75
2023/03/10 02:48:50;;;;;;;;;;;;;;;;;;4974774;28;20378;-76
2023/03/10 02:51:22;;;;;;;;;;;;;;;;;;4974409;28;19921;-76
2023/03/10 02:53:47;;;;;;;;;;;;;;;;;;4958531;28;20286;-74
2023/03/10 02:56:13;;;;;;;;;;;;;;;;;;4982751;28;19918;-75
2023/03/10 02:58:40;;;;;;;;;;;;;;;;;;5005489;28;20368;-76
2023/03/10 03:01:07;;;;;;;;;;;;;;;;;;5014148;28;19920;-76
2023/03/10 03:03:37;;;;;;;;;;;;;;;;;;5014331;28;19967;-76
2023/03/10 03:06:02;;;;;;;;;;;;;;;;;;4996689;28;19913;-76
2023/03/10 03:08:28;;;;;;;;;;;;;;;;;;5013855;28;19996;-75
2023/03/10 03:10:53;;;;;;;;;;;;;;;;;;5013766;28;19956;-76
2023/03/10 03:13:19;;;;;;;;;;;;;;;;;;5012904;28;19913;-76
2023/03/10 03:15:44;;;;;;;;;;;;;;;;;;5001454;28;19921;-75
2023/03/10 03:18:10;;;;;;;;;;;;;;;;;;4993562;28;20000;-76
2023/03/10 03:20:36;;;;;;;;;;;;;;;;;;4993654;28;20492;-75
2023/03/10 03:23:01;;;;;;;;;;;;;;;;;;4994472;28;19918;-75
2023/03/10 03:25:27;;;;;;;;;;;;;;;;;;4993131;28;19972;-76
2023/03/10 03:27:52;;;;;;;;;;;;;;;;;;4993585;28;20341;-75
2023/03/10 03:30:18;;;;;;;;;;;;;;;;;;4976289;28;20096;-76
2023/03/10 03:32:43;;;;;;;;;;;;;;;;;;4984742;28;20381;-76
2023/03/10 03:35:09;;;;;;;;;;;;;;;;;;4977171;28;19945;-76
2023/03/10 03:37:34;;;;;;;;;;;;;;;;;;4993266;28;19913;-76
2023/03/10 03:40:00;;;;;;;;;;;;;;;;;;4994109;28;20360;-76
2023/03/10 03:42:25;;;;;;;;;;;;;;;;;;4992851;28;19918;-76
2023/03/10 03:44:52;;;;;;;;;;;;;;;;;;4976779;28;19913;-76
2023/03/10 03:47:19;;;;;;;;;;;;;;;;;;4991980;28;19923;-76
2023/03/10 03:49:44;;;;;;;;;;;;;;;;;;5005328;28;19920;-76
2023/03/10 03:52:10;;;;;;;;;;;;;;;;;;5012220;28;19913;-76
2023/03/10 03:54:36;;;;;;;;;;;;;;;;;;5012074;28;19913;-76
2023/03/10 03:57:01;;;;;;;;;;;;;;;;;;5012136;28;19913;-76
2023/03/10 03:59:27;;;;;;;;;;;;;;;;;;5012117;28;19917;-76
2023/03/10 04:01:53;;;;;;;;;;;;;;;;;;4996049;28;20443;-76
2023/03/10 04:04:19;;;;;;;;;;;;;;;;;;5002041;28;19917;-76
2023/03/10 04:06:44;;;;;;;;;;;;;;;;;;5000510;28;20281;-76
2023/03/10 04:09:10;;;;;;;;;;;;;;;;;;4992853;28;19914;-76
2023/03/10 04:11:35;;;;;;;;;;;;;;;;;;4992879;28;19972;-76
2023/03/10 04:14:01;;;;;;;;;;;;;;;;;;4992497;28;19914;-76
2023/03/10 04:16:27;;;;;;;;;;;;;;;;;;4992215;28;19918;-76
2023/03/10 04:18:52;;;;;;;;;;;;;;;;;;4992136;28;19935;-76
2023/03/10 04:21:17;;;;;;;;;;;;;;;;;;5001420;28;19921;-76
2023/03/10 04:23:44;;;;;;;;;;;;;;;;;;5011910;28;19920;-76
2023/03/10 04:26:13;;;;;;;;;;;;;;;;;;5011762;28;19917;-76
2023/03/10 04:28:39;;;;;;;;;;;;;;;;;;5012592;28;19921;-76
2023/03/10 04:31:05;;;;;;;;;;;;;;;;;;4996511;28;19913;-76
2023/03/10 04:33:32;;;;;;;;;;;;;;;;;;5014759;28;19977;-76
2023/03/10 04:35:57;;;;;;;;;;;;;;;;;;5006199;28;19934;-76
2023/03/10 04:38:23;;;;;;;;;;;;;;;;;;5003238;28;20291;-76
2023/03/10 04:40:49;;;;;;;;;;;;;;;;;;4994521;28;19917;-76
2023/03/10 04:43:14;;;;;;;;;;;;;;;;;;4994756;28;19987;-76
2023/03/10 04:45:39;;;;;;;;;;;;;;;;;;4993885;28;20332;-76
2023/03/10 04:48:05;;;;;;;;;;;;;;;;;;4994345;28;20033;-76
2023/03/10 04:50:30;;;;;;;;;;;;;;;;;;4993148;28;20004;-76
2023/03/10 04:52:56;;;;;;;;;;;;;;;;;;4988299;28;20420;-76
2023/03/10 04:55:24;;;;;;;;;;;;;;;;;;5006633;28;19936;-76
2023/03/10 04:57:50;;;;;;;;;;;;;;;;;;4993255;28;19914;-76
2023/03/10 05:00:15;;;;;;;;;;;;;;;;;;4991698;28;19946;-76
2023/03/10 05:02:41;;;;;;;;;;;;;;;;;;4991526;28;19917;-76
2023/03/10 05:05:06;;;;;;;;;;;;;;;;;;4991439;28;20292;-76
2023/03/10 05:07:33;;;;;;;;;;;;;;;;;;4975756;28;19918;-76
2023/03/10 05:09:59;;;;;;;;;;;;;;;;;;4990386;28;20262;-75
2023/03/10 05:12:25;;;;;;;;;;;;;;;;;;5002826;28;20003;-74
2023/03/10 05:14:51;;;;;;;;;;;;;;;;;;5010950;28;19957;-76
2023/03/10 05:17:16;;;;;;;;;;;;;;;;;;5012165;28;20311;-76
2023/03/10 05:19:42;;;;;;;;;;;;;;;;;;5011343;28;19918;-76
2023/03/10 05:22:10;;;;;;;;;;;;;;;;;;5012314;28;19917;-76
2023/03/10 05:24:35;;;;;;;;;;;;;;;;;;5005730;28;19945;-76
2023/03/10 05:27:04;;;;;;;;;;;;;;;;;;5002734;28;19964;-77
2023/03/10 05:29:29;;;;;;;;;;;;;;;;;;5012641;28;19960;-76
2023/03/10 05:32:01;;;;;;;;;;;;;;;;;;4998786;28;19913;-76
2023/03/10 05:34:32;;;;;;;;;;;;;;;;;;5014762;28;19913;-76
2023/03/10 05:37:00;;;;;;;;;;;;;;;;;;4998360;28;20347;-76
2023/03/10 05:39:26;;;;;;;;;;;;;;;;;;4998372;28;19910;-76
2023/03/10 05:41:54;;;;;;;;;;;;;;;;;;4984353;28;20012;-75
2023/03/10 05:44:20;;;;;;;;;;;;;;;;;;5003307;28;19914;-75
2023/03/10 05:46:45;;;;;;;;;;;;;;;;;;4997474;28;20000;-76
2023/03/10 05:49:11;;;;;;;;;;;;;;;;;;4999360;28;20284;-76
2023/03/10 05:51:37;;;;;;;;;;;;;;;;;;5000272;28;19913;-76
2023/03/10 05:54:04;;;;;;;;;;;;;;;;;;4999039;28;19983;-76
2023/03/10 05:56:30;;;;;;;;;;;;;;;;;;4999740;28;19914;-76
2023/03/10 05:58:58;;;;;;;;;;;;;;;;;;5013715;28;19914;-76
2023/03/10 06:01:28;;;;;;;;;;;;;;;;;;5008133;28;19926;-76
2023/03/10 06:03:54;;;;;;;;;;;;;;;;;;5014395;28;19913;-75
2023/03/10 06:06:19;;;;;;;;;;;;;;;;;;5031996;23;19918;-79
2023/03/10 06:08:44;;;;;;;;;;;;;;;;;;5052874;28;19985;-78
2023/03/10 06:11:10;;;;;;;;;;;;;;;;;;5041434;28;19921;-78
2023/03/10 06:13:35;;;;;;;;;;;;;;;;;;5021605;28;20386;-78
2023/03/10 06:16:01;;;;;;;;;;;;;;;;;;5049308;28;19977;-79
2023/03/10 06:18:26;;;;;;;;;;;;;;;;;;5036830;28;20376;-79
2023/03/10 06:20:52;;;;;;;;;;;;;;;;;;5037767;28;19920;-77
2023/03/10 06:23:20;;;;;;;;;;;;;;;;;;5002563;28;19921;-78
2023/03/10 06:25:46;;;;;;;;;;;;;;;;;;5036527;28;20442;-79
2023/03/10 06:28:11;;;;;;;;;;;;;;;;;;5019169;28;19932;-78
2023/03/10 06:30:37;;;;;;;;;;;;;;;;;;5019814;28;19952;-79
2023/03/10 06:33:02;;;;;;;;;;;;;;;;;;5004471;28;20284;-79
2023/03/10 06:35:28;;;;;;;;;;;;;;;;;;5025517;28;20265;-77
2023/03/10 06:37:53;;;;;;;;;;;;;;;;;;5001507;28;19951;-77
2023/03/10 06:40:19;;;;;;;;;;;;;;;;;;5000460;28;19913;-78
2023/03/10 06:42:44;;;;;;;;;;;;;;;;;;5001762;28;20352;-78
2023/03/10 06:45:09;;;;;;;;;;;;;;;;;;4986195;28;19909;-78
2023/03/10 06:47:35;;;;;;;;;;;;;;;;;;5001414;28;20396;-78
2023/03/10 06:50:01;;;;;;;;;;;;;;;;;;5009165;28;20376;-78
2023/03/10 06:52:26;;;;;;;;;;;;;;;;;;5007040;28;19913;-78
2023/03/10 06:54:51;;;;;;;;;;;;;;;;;;5001511;28;19913;-79
2023/03/10 06:57:17;;;;;;;;;;;;;;;;;;5021417;28;19914;-77
2023/03/10 06:59:42;;;;;;;;;;;;;;;;;;4986189;28;20392;-76
2023/03/10 07:02:08;;;;;;;;;;;;;;;;;;4969016;28;19922;-78
2023/03/10 07:04:33;;;;;;;;;;;;;;;;;;5018314;28;20008;-79
2023/03/10 07:06:58;;;;;;;;;;;;;;;;;;5022687;28;20411;-78
2023/03/10 07:09:24;;;;;;;;;;;;;;;;;;4995865;28;19920;-77
2023/03/10 07:11:49;;;;;;;;;;;;;;;;;;4984736;28;20027;-78
2023/03/10 07:14:15;;;;;;;;;;;;;;;;;;5016634;28;19913;-77
2023/03/10 07:16:41;;;;;;;;;;;;;;;;;;4984012;28;19920;-77
2023/03/10 07:19:09;;;;;;;;;;;;;;;;;;4984067;28;19936;-77
2023/03/10 07:21:34;;;;;;;;;;;;;;;;;;5010578;28;19921;-79
2023/03/10 07:24:00;;;;;;;;;;;;;;;;;;5023485;28;19920;-77
2023/03/10 07:26:25;;;;;;;;;;;;;;;;;;4997837;28;20016;-78
2023/03/10 07:28:51;;;;;;;;;;;;;;;;;;4997463;28;19921;-78
2023/03/10 07:31:16;;;;;;;;;;;;;;;;;;4997107;28;19913;-77
2023/03/10 07:33:42;;;;;;;;;;;;;;;;;;5014416;28;19920;-78
2023/03/10 07:36:07;;;;;;;;;;;;;;;;;;4998270;28;19997;-78
2023/03/10 07:38:33;;;;;;;;;;;;;;;;;;4981525;28;19913;-79
2023/03/10 07:40:58;;;;;;;;;;;;;;;;;;5030080;28;19923;-76
2023/03/10 07:43:24;;;;;;;;;;;;;;;;;;5018321;28;19953;-79
2023/03/10 07:45:49;;;;;;;;;;;;;;;;;;5019176;28;19913;-78
2023/03/10 07:48:15;;;;;;;;;;;;;;;;;;5002801;28;20384;-78
2023/03/10 07:50:40;;;;;;;;;;;;;;;;;;5037528;28;20295;-79
2023/03/10 07:53:05;;;;;;;;;;;;;;;;;;5037101;28;19920;-77
2023/03/10 07:55:31;;;;;;;;;;;;;;;;;;5002690;28;19913;-77
2023/03/10 07:57:58;;;;;;;;;;;;;;;;;;4987981;28;19917;-77
2023/03/10 08:00:23;;;;;;;;;;;;;;;;;;4999914;28;19967;-79
2023/03/10 08:02:49;;;;;;;;;;;;;;;;;;4999788;28;19918;-78
2023/03/10 08:05:15;;;;;;;;;;;;;;;;;;4984155;28;20477;-78
2023/03/10 08:07:42;;;;;;;;;;;;;;;;;;5007342;28;19918;-79
2023/03/10 08:10:07;;;;;;;;;;;;;;;;;;4997343;28;20397;-78
2023/03/10 08:12:33;;;;;;;;;;;;;;;;;;5021139;28;19913;-76
2023/03/10 08:14:58;;;;;;;;;;;;;;;;;;5013304;28;19940;-77
2023/03/10 08:17:29;;;;;;;;;;;;;;;;;;5013534;28;19996;-78
2023/03/10 08:19:54;;;;;;;;;;;;;;;;;;5014340;28;19921;-79
2023/03/10 08:22:20;;;;;;;;;;;;;;;;;;5015625;28;19914;-77
2023/03/10 08:24:45;;;;;;;;;;;;;;;;;;5015586;28;19913;-79
2023/03/10 08:27:11;;;;;;;;;;;;;;;;;;4999021;28;19913;-77
2023/03/10 08:29:36;;;;;;;;;;;;;;;;;;5017480;28;20336;-79
2023/03/10 08:32:02;;;;;;;;;;;;;;;;;;5036400;28;19959;-78
2023/03/10 08:34:27;;;;;;;;;;;;;;;;;;5036051;28;20369;-78
2023/03/10 08:36:53;;;;;;;;;;;;;;;;;;5036469;28;19913;-78
2023/03/10 08:39:19;;;;;;;;;;;;;;;;;;5020522;28;19917;-78
2023/03/10 08:41:47;;;;;;;;;;;;;;;;;;5020171;28;19940;-78
2023/03/10 08:44:14;;;;;;;;;;;;;;;;;;5026968;28;19960;-80
2023/03/10 08:46:39;;;;;;;;;;;;;;;;;;5028143;28;19982;-78
2023/03/10 08:49:05;;;;;;;;;;;;;;;;;;5036657;28;19956;-78
2023/03/10 08:51:30;;;;;;;;;;;;;;;;;;5037298;28;20373;-79
2023/03/10 08:53:55;;;;;;;;;;;;;;;;;;5037778;28;20308;-80
2023/03/10 08:56:21;;;;;;;;;;;;;;;;;;5036340;28;19913;-78
2023/03/10 08:58:46;;;;;;;;;;;;;;;;;;5035174;28;19913;-79
2023/03/10 09:01:12;;;;;;;;;;;;;;;;;;5026263;28;19913;-78
2023/03/10 09:03:38;;;;;;;;;;;;;;;;;;5022860;28;19928;-80
2023/03/10 09:06:03;;;;;;;;;;;;;;;;;;5018730;28;19913;-79
2023/03/10 09:08:29;;;;;;;;;;;;;;;;;;5017322;28;19917;-79
2023/03/10 09:10:54;;;;;;;;;;;;;;;;;;5017026;28;19925;-81
2023/03/10 09:13:19;;;;;;;;;;;;;;;;;;5016932;28;19968;-78
2023/03/10 09:15:45;;;;;;;;;;;;;;;;;;5018603;28;19964;-79
2023/03/10 09:18:10;;;;;;;;;;;;;;;;;;5016371;28;20288;-78
2023/03/10 09:20:36;;;;;;;;;;;;;;;;;;5024920;28;20330;-78
2023/03/10 09:23:01;;;;;;;;;;;;;;;;;;5017820;28;19924;-78
2023/03/10 09:25:27;;;;;;;;;;;;;;;;;;5015574;28;20292;-79
2023/03/10 09:27:52;;;;;;;;;;;;;;;;;;5017104;28;20277;-78
2023/03/10 09:30:17;;;;;;;;;;;;;;;;;;5015935;28;19924;-79
2023/03/10 09:32:43;;;;;;;;;;;;;;;;;;5017995;28;20434;-77
2023/03/10 09:35:09;;;;;;;;;;;;;;;;;;5031002;28;19913;-89
2023/03/10 09:37:34;;;;;;;;;;;;;;;;;;5012292;28;20520;-85
2023/03/10 09:40:00;;;;;;;;;;;;;;;;;;5038635;28;19936;-83
2023/03/10 09:42:25;;;;;;;;;;;;;;;;;;5054763;28;19917;-85
2023/03/10 09:44:51;;;;;;;;;;;;;;;;;;5057805;28;19909;-88
2023/03/10 09:47:16;;;;;;;;;;;;;;;;;;5057739;28;19913;-89
2023/03/10 09:49:42;;;;;;;;;;;;;;;;;;5058765;28;19931;-87
2023/03/10 09:52:07;;;;;;;;;;;;;;;;;;5029409;28;20118;-86
2023/03/10 09:54:33;;;;;;;;;;;;;;;;;;5044181;28;19913;-88
2023/03/10 09:56:58;;;;;;;;;;;;;;;;;;5034754;28;19985;-87
2023/03/10 09:59:24;;;;;;;;;;;;;;;;;;5029949;28;19944;-85
2023/03/10 10:01:49;;;;;;;;;;;;;;;;;;5020900;28;19921;-86
2023/03/10 10:04:14;;;;;;;;;;;;;;;;;;5023963;28;20288;-87
2023/03/10 10:06:41;;;;;;;;;;;;;;;;;;5015702;28;19918;-86
2023/03/10 10:09:08;;;;;;;;;;;;;;;;;;4999808;28;19960;-87
2023/03/10 10:11:34;;;;;;;;;;;;;;;;;;4992693;28;20369;-86
2023/03/10 10:13:59;;;;;;;;;;;;;;;;;;5035380;28;19966;-85
2023/03/10 10:16:26;;;;;;;;;;;;;;;;;;5034841;28;19913;-84
2023/03/10 10:18:51;;;;;;;;;;;;;;;;;;5017435;28;20293;-80
2023/03/10 10:21:16;;;;;;;;;;;;;;;;;;5035388;28;19913;-78
2023/03/10 10:23:42;;;;;;;;;;;;;;;;;;5012060;28;19913;-77
2023/03/10 10:26:08;;;;;;;;;;;;;;;;;;5015049;28;20408;-78
2023/03/10 10:28:45;;;;;;;;;;;;;;;;;;4981216;28;20321;-79
2023/03/10 10:31:17;;;;;;;;;;;;;;;;;;4978312;28;20004;-78
2023/03/10 10:33:42;;;;;;;;;;;;;;;;;;4996311;28;19964;-79
2023/03/10 10:36:08;;;;;;;;;;;;;;;;;;4993355;28;20393;-80
2023/03/10 10:38:34;;;;;;;;;;;;;;;;;;4974586;28;19913;-78
2023/03/10 10:41:00;;;;;;;;;;;;;;;;;;4995922;28;19913;-76
2023/03/10 10:43:26;;;;;;;;;;;;;;;;;;4978139;28;20020;-78
2023/03/10 10:45:52;;;;;;;;;;;;;;;;;;4999219;28;19913;-89
2023/03/10 10:48:18;;;;;;;;;;;;;;;;;;4982279;28;19920;-89
2023/03/10 10:50:43;;;;;;;;;;;;;;;;;;4971284;28;19913;-79
2023/03/10 10:53:09;;;;;;;;;;;;;;;;;;4978184;28;19921;-80
2023/03/10 10:55:34;;;;;;;;;;;;;;;;;;4994978;28;19914;-79
2023/03/10 10:57:59;;;;;;;;;;;;;;;;;;4994200;28;20008;-80
2023/03/10 11:00:25;;;;;;;;;;;;;;;;;;4977234;28;19918;-79
2023/03/10 11:02:53;;;;;;;;;;;;;;;;;;4977709;28;19976;-81
2023/03/10 11:05:20;;;;;;;;;;;;;;;;;;5009374;28;20369;-78
2023/03/10 11:07:46;;;;;;;;;;;;;;;;;;4986691;28;19929;-80
2023/03/10 11:10:11;;;;;;;;;;;;;;;;;;5010405;28;19913;-81
2023/03/10 11:12:37;;;;;;;;;;;;;;;;;;5005017;28;19936;-78
2023/03/10 11:15:03;;;;;;;;;;;;;;;;;;5011907;28;20380;-78
2023/03/10 11:17:28;;;;;;;;;;;;;;;;;;5026329;28;19922;-81
2023/03/10 11:19:53;;;;;;;;;;;;;;;;;;4992600;28;19925;-80
2023/03/10 11:22:19;;;;;;;;;;;;;;;;;;5009048;28;19960;-79
2023/03/10 11:24:44;;;;;;;;;;;;;;;;;;5020291;28;20313;-79
2023/03/10 11:27:10;;;;;;;;;;;;;;;;;;5008987;28;19959;-78
2023/03/10 11:29:35;;;;;;;;;;;;;;;;;;5017380;28;19917;-78
2023/03/10 11:32:01;;;;;;;;;;;;;;;;;;4999385;28;20266;-81
2023/03/10 11:34:29;;;;;;;;;;;;;;;;;;5006565;28;19913;-80
2023/03/10 11:36:54;;;;;;;;;;;;;;;;;;5020096;28;19979;-81
2023/03/10 11:39:20;;;;;;;;;;;;;;;;;;5020671;28;20007;-81
2023/03/10 11:41:45;;;;;;;;;;;;;;;;;;5022273;28;20426;-81
2023/03/10 11:44:11;;;;;;;;;;;;;;;;;;4997185;28;20390;-80
2023/03/10 11:46:36;;;;;;;;;;;;;;;;;;5018109;28;19996;-80
2023/03/10 11:49:02;;;;;;;;;;;;;;;;;;5026016;28;19956;-79
2023/03/10 11:51:27;;;;;;;;;;;;;;;;;;5007368;28;20289;-79
2023/03/10 11:53:52;;;;;;;;;;;;;;;;;;5023279;28;20020;-81
2023/03/10 11:56:18;;;;;;;;;;;;;;;;;;5025415;28;19914;-79
2023/03/10 11:58:43;;;;;;;;;;;;;;;;;;5011124;28;19917;-82
2023/03/10 12:01:08;;;;;;;;;;;;;;;;;;5028199;28;19913;-81
2023/03/10 12:03:34;;;;;;;;;;;;;;;;;;5019362;28;19980;-81
2023/03/10 12:05:59;;;;;;;;;;;;;;;;;;5008933;28;20017;-79
2023/03/10 12:08:25;;;;;;;;;;;;;;;;;;5009905;23;19970;-76
2023/03/10 12:10:50;;;;;;;;;;;;;;;;;;4971767;28;19913;-76
2023/03/10 12:13:15;;;;;;;;;;;;;;;;;;4981070;28;20369;-76
2023/03/10 12:15:41;;;;;;;;;;;;;;;;;;4972012;28;20413;-75
2023/03/10 12:18:06;;;;;;;;;;;;;;;;;;4990514;28;19913;-75
2023/03/10 12:20:32;;;;;;;;;;;;;;;;;;5004805;28;19949;-76
2023/03/10 12:22:58;;;;;;;;;;;;;;;;;;4975502;28;19925;-89
2023/03/10 12:25:23;;;;;;;;;;;;;;;;;;4991623;28;19992;-84
2023/03/10 12:27:48;;;;;;;;;;;;;;;;;;4974903;28;19924;-81
2023/03/10 12:30:14;;;;;;;;;;;;;;;;;;4989402;28;19910;-84
2023/03/10 12:32:40;;;;;;;;;;;;;;;;;;4990287;28;19914;-82
2023/03/10 12:35:06;;;;;;;;;;;;;;;;;;4990172;28;20381;-83
2023/03/10 12:37:31;;;;;;;;;;;;;;;;;;4993325;28;19944;-80
2023/03/10 12:39:56;;;;;;;;;;;;;;;;;;5018520;28;19913;-83
2023/03/10 12:42:22;;;;;;;;;;;;;;;;;;5007617;28;20366;-84
2023/03/10 12:44:47;;;;;;;;;;;;;;;;;;4968864;28;19937;-74
2023/03/10 12:47:14;;;;;;;;;;;;;;;;;;5009922;28;19922;-74
2023/03/10 12:49:40;;;;;;;;;;;;;;;;;;5006666;28;19913;-74
2023/03/10 12:52:05;;;;;;;;;;;;;;;;;;4971759;28;19925;-74
2023/03/10 12:54:30;;;;;;;;;;;;;;;;;;5010275;28;19914;-74
2023/03/10 12:56:56;;;;;;;;;;;;;;;;;;5011117;28;20292;-74
2023/03/10 12:59:21;;;;;;;;;;;;;;;;;;4992201;28;20324;-74
2023/03/10 13:01:47;;;;;;;;;;;;;;;;;;4991589;28;20067;-74
2023/03/10 13:04:13;;;;;;;;;;;;;;;;;;4983784;28;20465;-74
2023/03/10 13:06:39;;;;;;;;;;;;;;;;;;5023773;28;19913;-74
2023/03/10 13:09:04;;;;;;;;;;;;;;;;;;5007926;28;19917;-74
2023/03/10 13:11:30;;;;;;;;;;;;;;;;;;5024141;28;19917;-74
2023/03/10 13:13:55;;;;;;;;;;;;;;;;;;5034969;28;19904;-74
2023/03/10 13:16:20;;;;;;;;;;;;;;;;;;5027937;28;19910;-74
2023/03/10 13:18:46;;;;;;;;;;;;;;;;;;5033967;28;19928;-74
2023/03/10 13:21:11;;;;;;;;;;;;;;;;;;5028137;28;19960;-74
2023/03/10 13:23:37;;;;;;;;;;;;;;;;;;5016699;28;20043;-74
2023/03/10 13:26:02;;;;;;;;;;;;;;;;;;4992894;28;19917;-74
2023/03/10 13:28:28;;;;;;;;;;;;;;;;;;5006918;28;19914;-74
2023/03/10 13:30:53;;;;;;;;;;;;;;;;;;5010149;28;19914;-74
2023/03/10 13:33:19;;;;;;;;;;;;;;;;;;4990271;28;19920;-74
2023/03/10 13:35:46;;;;;;;;;;;;;;;;;;4976520;28;19913;-74
2023/03/10 13:38:11;;;;;;;;;;;;;;;;;;5008827;28;19913;-75
2023/03/10 13:40:37;;;;;;;;;;;;;;;;;;5008949;28;20397;-74
2023/03/10 13:43:02;;;;;;;;;;;;;;;;;;5010015;28;20393;-74
2023/03/10 13:45:32;;;;;;;;;;;;;;;;;;4998786;28;19948;-73
2023/03/10 13:47:58;;;;;;;;;;;;;;;;;;5007155;28;19913;-74
2023/03/10 13:50:23;;;;;;;;;;;;;;;;;;5004221;28;19929;-74
2023/03/10 13:52:48;;;;;;;;;;;;;;;;;;5008732;28;19922;-74
2023/03/10 13:55:14;;;;;;;;;;;;;;;;;;5008009;28;19913;-74
2023/03/10 13:57:40;;;;;;;;;;;;;;;;;;5008711;28;19920;-74
2023/03/10 14:00:07;;;;;;;;;;;;;;;;;;5002247;28;19920;-74
2023/03/10 14:02:38;;;;;;;;;;;;;;;;;;5004386;28;19918;-74
2023/03/10 14:05:05;;;;;;;;;;;;;;;;;;4992365;28;19935;-74
2023/03/10 14:07:31;;;;;;;;;;;;;;;;;;4997530;28;19918;-74
2023/03/10 14:09:57;;;;;;;;;;;;;;;;;;4995416;28;20381;-74
2023/03/10 14:12:22;;;;;;;;;;;;;;;;;;4995358;28;19913;-74
2023/03/10 14:17:29;;;;;;;;;;;;;;;;;;5013046;23;19926;-95
2023/03/10 14:19:56;;;;;;;;;;;;;;;;;;4969129;28;19924;-96
2023/03/10 14:22:22;;;;;;;;;;;;;;;;;;4977483;28;19957;-93
2023/03/10 14:24:48;;;;;;;;;;;;;;;;;;4996916;28;19914;-96
2023/03/10 14:27:14;;;;;;;;;;;;;;;;;;4966190;28;19895;-94
2023/03/10 14:29:40;;;;;;;;;;;;;;;;;;4998985;28;19946;-96
2023/03/10 14:32:06;;;;;;;;;;;;;;;;;;4978113;28;19917;-96
2023/03/10 14:34:33;;;;;;;;;;;;;;;;;;4963411;28;19914;-94
2023/03/10 14:36:58;;;;;;;;;;;;;;;;;;4957059;28;20033;-96
2023/03/10 14:39:25;;;;;;;;;;;;;;;;;;4966612;28;19954;-96
2023/03/10 14:41:55;;;;;;;;;;;;;;;;;;4965887;28;19926;-96
2023/03/10 14:44:21;;;;;;;;;;;;;;;;;;4965017;28;19921;-96
2023/03/10 14:46:51;;;;;;;;;;;;;;;;;;4963537;28;19914;-96
2023/03/10 14:49:17;;;;;;;;;;;;;;;;;;4963124;28;19957;-96
2023/03/10 14:51:43;;;;;;;;;;;;;;;;;;4965915;28;19918;-96
2023/03/10 14:54:09;;;;;;;;;;;;;;;;;;4962755;28;20376;-96
2023/03/10 14:56:34;;;;;;;;;;;;;;;;;;4965412;28;19914;-96
2023/03/10 14:59:01;;;;;;;;;;;;;;;;;;4968491;28;20386;-96
2023/03/10 15:01:27;;;;;;;;;;;;;;;;;;4968935;28;19914;-96
2023/03/10 15:03:57;;;;;;;;;;;;;;;;;;4969348;28;19925;-96
2023/03/10 15:06:23;;;;;;;;;;;;;;;;;;4982098;28;19914;-96
2023/03/10 15:08:49;;;;;;;;;;;;;;;;;;4971529;28;19936;-96
2023/03/10 15:11:15;;;;;;;;;;;;;;;;;;4988701;28;19987;-94
2023/03/10 15:13:42;;;;;;;;;;;;;;;;;;4971906;28;19977;-94
2023/03/10 15:16:08;;;;;;;;;;;;;;;;;;4972687;28;19918;-95
2023/03/10 15:18:34;;;;;;;;;;;;;;;;;;4974761;28;19913;-95
2023/03/10 15:21:02;;;;;;;;;;;;;;;;;;4970246;28;19995;-95
2023/03/10 15:23:27;;;;;;;;;;;;;;;;;;4970899;28;19957;-95
2023/03/10 15:25:53;;;;;;;;;;;;;;;;;;4965408;28;19917;-95
2023/03/10 15:28:19;;;;;;;;;;;;;;;;;;4965932;28;19914;-95
2023/03/10 15:30:45;;;;;;;;;;;;;;;;;;4971696;28;19913;-94
2023/03/10 15:33:11;;;;;;;;;;;;;;;;;;4971191;28;19936;-94
2023/03/10 15:35:37;;;;;;;;;;;;;;;;;;4988321;28;19921;-95
2023/03/10 15:38:03;;;;;;;;;;;;;;;;;;4971714;28;20280;-94
2023/03/10 15:40:30;;;;;;;;;;;;;;;;;;4972231;28;20422;-94
2023/03/10 15:42:57;;;;;;;;;;;;;;;;;;4988972;28;19926;-96
2023/03/10 15:45:23;;;;;;;;;;;;;;;;;;4974931;28;19914;-96
2023/03/10 15:47:49;;;;;;;;;;;;;;;;;;4972279;28;19913;-96
2023/03/10 15:50:15;;;;;;;;;;;;;;;;;;4985729;28;20363;-96
2023/03/10 15:52:41;;;;;;;;;;;;;;;;;;4968505;28;19956;-96
2023/03/10 15:55:07;;;;;;;;;;;;;;;;;;4967786;28;19921;-96
2023/03/10 15:57:34;;;;;;;;;;;;;;;;;;4968240;28;20338;-96
2023/03/10 16:00:00;;;;;;;;;;;;;;;;;;4983514;28;19924;-96
2023/03/10 16:02:26;;;;;;;;;;;;;;;;;;4986211;28;19925;-96
2023/03/10 16:04:52;;;;;;;;;;;;;;;;;;4985640;28;19917;-96
2023/03/10 16:07:18;;;;;;;;;;;;;;;;;;4983935;28;20442;-96
2023/03/10 16:09:44;;;;;;;;;;;;;;;;;;4986642;28;19993;-95
2023/03/10 16:12:10;;;;;;;;;;;;;;;;;;4988423;28;19985;-96
2023/03/10 16:14:37;;;;;;;;;;;;;;;;;;4974769;28;19920;-94
2023/03/10 16:17:03;;;;;;;;;;;;;;;;;;4974110;28;20261;-95
2023/03/10 16:19:29;;;;;;;;;;;;;;;;;;4971720;28;19913;-95
2023/03/10 16:21:55;;;;;;;;;;;;;;;;;;4989137;28;19925;-94
2023/03/10 16:24:27;;;;;;;;;;;;;;;;;;4971876;28;22377;-96
2023/03/10 16:26:53;;;;;;;;;;;;;;;;;;4984759;28;20435;-95
2023/03/10 16:29:19;;;;;;;;;;;;;;;;;;4970014;28;19953;-95
2023/03/10 16:31:45;;;;;;;;;;;;;;;;;;4975048;28;20404;-95
2023/03/10 16:34:14;;;;;;;;;;;;;;;;;;4977498;28;19914;-96
2023/03/10 16:36:49;;;;;;;;;;;;;;;;;;4976002;28;19969;-77
2023/03/10 16:39:15;;;;;;;;;;;;;;;;;;4995890;28;19922;-77